AirNav   Everest Fuels
 
 397 users online  

42PN Allegheny General Hospital Emergency Heliport
Pittsburgh, Pennsylvania, USA

GOING TO PITTSBURGH?


FAA INFORMATION EFFECTIVE 18 JUNE 2020

Location

FAA Identifier: 42PN
Lat/Long: 40-27-22.6000N 080-00-14.9500W
40-27.376667N 080-00.249167W
40.4562778,-80.0041528
(estimated)
Elevation: 811 ft. / 247 m (estimated)
Variation: 08W (1985)
From city: 3 miles S of PITTSBURGH, PA
Time zone: UTC -4 (UTC -5 during Standard Time)
Zip code: 15212

Heliport Operations

Heliport use: Private use, MEDICAL USE.
Control tower: no
ARTCC: CLEVELAND CENTER
FSS: ALTOONA FLIGHT SERVICE STATION
Attendance: CONTINUOUS
Wind indicator: lighted
Segmented circle: no
Lights: SS-SR

Heliport Communications

UNICOM: 123.05
WX AWOS-A: PHONE 412-442-2213
WX ASOS at AGC (7 nm SE): 120.55 (412-466-8968)
WX ASOS at PIT (11 nm W): PHONE 412-472-0145
WX AWOS-3 at FWQ (17 nm SE): 118.475 (724-379-5815)
WX AWOS-3PT at BTP (19 nm N): 121.450 (724-586-6434)

Nearby radio navigation aids

VOR radial/distance  VOR name  Freq  Var
AGCr018/10.8ALLEGHENY VOR/DME110.0009W
EWCr165/24.1ELLWOOD CITY VOR/DME115.8008W
HLGr072/28.4WHEELING VOR/DME112.2007W

 
NDB name  Hdg/Dist  Freq  Var  ID
CASTLE160/38.827209WUCP ..- -.-. .--.

Heliport Services

Runway Information

Helipad H1

Dimensions: 65 x 65 ft. / 20 x 20 m
Surface: concrete, in good condition
Runway edge lights: PERI
AND DRCTN LGTS.
Operational restrictions: HELIPAD ELEVATED ABOVE ALL OBSTACLES.
Latitude: 40-27.376667N
Longitude: 080-00.249167W
Elevation: 811.0 ft.
Traffic pattern: leftleft
Markings: basic
Obstructions: 55 ft. trees, 369 ft. from runway, 34 ft. right of centerline, 6:1 slope to clear

Heliport Ownership and Management from official FAA records

Ownership: Privately-owned
Owner: ALLEGHENY GENERAL HOSPITAL
320 E NORTH AVENUE
PITTSBURGH, PA 15212
Phone 412-359-3555
Manager: JAMES PALAFOUTAS
320 E NORTH AVENUE
PITTSBURGH, PA 15212
Phone 412-359-3555

Additional Remarks

FOR CD CTC PITTSBURGH APCH AT 412-472-5591

Instrument Procedures

There are no published instrument procedures at 42PN.

Some nearby airports with instrument procedures:

KAGC - Allegheny County Airport (7 nm SE)
KPIT - Pittsburgh International Airport (11 nm W)
G05 - Finleyville Airpark (13 nm S)
KFWQ - Rostraver Airport (17 nm SE)
KBTP - Pittsburgh/Butler Regional Airport (19 nm N)
 
Loc | Ops | Rwys | IFR | FBO | Links
Com | Nav | Svcs | Stats | Notes
Area around 42PN (Allegheny General Hospital Emergency Heliport)
 
Road maps at: MapQuest Bing Google
 
Aerial photo
No photo
 
Sectional chart

 
Airport distance calculator
Flying to Allegheny General Hospital Emergency Heliport? Find the distance to fly.

From to 42PN

Sunrise and sunset
Times for 05-Jul-2020
 Local
(UTC-4)
 Zulu
(UTC)
Morning civil twilight05:2409:24
Sunrise05:5709:57
Sunset20:5200:52
Evening civil twilight21:2501:25

Current date and time
Zulu (UTC)  05-Jul-2020 05:19:27
Local (UTC-4)  05-Jul-2020 01:19:27
 
METAR
KAGC 
8nm SE 
050453Z 35004KT 10SM CLR 23/16 A2999 RMK AO2 SLP149 T02330156 403280222
KPIT 
12nm W 
050451Z 00000KT 10SM FEW140 FEW250 24/14 A3000 RMK AO2 SLP154 T02390144 403280211
KP53 
17nm SE 
050356Z AUTO 10+5KT 21/17 A2998 RMK ŚUMM110172
KBTP 
19nm N 
050456Z AUTO 00000KT 9SM CLR A3002 RMK AO2 SLPNO FZRANO PNO $
TAF
KAGC 
8nm SE 
041726Z 0418/0518 33004KT P6SM SCT050= TAF KDUJ 041726Z 0418/0518 36005KT P6SM SCT060
KPIT 
12nm W 
050301Z 0503/0606 02003KT P6SM SCT250 FM051600 08003KT P6SM SCT050
NOTAMs
Click for the latest NOTAMs
NOTAMs are issued by the DoD/FAA and will open in a separate window not controlled by AirNav.

 

 
 

Would you like to see your business listed on this page?

 If your business provides an interesting product or service to pilots, flight crews, aircraft, or users of the Allegheny General Hospital Emergency Heliport, you should consider listing it here.  To start the listing process, click on the button below
 
Add a business
 

Other Pages about Allegheny General Hospital Emergency Heliport

Update a link
 
Copyright © AirNav, LLC. All rights reserved. Privacy Policy  Contact